Time;durP1;ratioP1;P1;durP2;ratioP2;P2;SDS_P1;SDS_P2;PMS_P1;PMS_P2;Temp;Humidity;BMP_temperature;BMP_pressure;BME280_temperature;BME280_humidity;BME280_pressure;Samples;Min_cycle;Max_cycle;Signal;HPM_P1;HPM_P2
2022/09/13 00:00:14;;;;;;;24.77;10.05;;;;;;;;;;6211136;23;20155;-88
2022/09/13 00:03:20;;;;;;;24.33;9.98;;;;;;;;;;6210481;23;20170;-89
2022/09/13 00:06:25;;;;;;;20.98;8.88;;;;;;;;;;6212244;23;20178;-89
2022/09/13 00:09:30;;;;;;;18.42;9.10;;;;;;;;;;6209105;23;20194;-88
2022/09/13 00:12:35;;;;;;;16.55;8.63;;;;;;;;;;6210061;23;20195;-89
2022/09/13 00:15:45;;;;;;;17.45;9.02;;;;;;;;;;6207763;23;20279;-89
2022/09/13 00:18:50;;;;;;;17.63;8.88;;;;;;;;;;6192964;23;20198;-89
2022/09/13 00:21:55;;;;;;;21.75;9.55;;;;;;;;;;6210481;23;20210;-90
2022/09/13 00:25:00;;;;;;;19.40;9.55;;;;;;;;;;6210638;23;20171;-88
2022/09/13 00:28:06;;;;;;;19.98;9.45;;;;;;;;;;6213349;23;20171;-90
2022/09/13 00:31:13;;;;;;;18.42;8.82;;;;;;;;;;6208292;23;20159;-88
2022/09/13 00:34:18;;;;;;;18.25;9.18;;;;;;;;;;6213054;23;20179;-91
2022/09/13 00:37:23;;;;;;;17.58;8.60;;;;;;;;;;6213583;23;20199;-89
2022/09/13 00:40:30;;;;;;;22.10;8.18;;;;;;;;;;6213130;23;20614;-89
2022/09/13 00:43:43;;;;;;;15.57;8.68;;;;;;;;;;6213747;23;20166;-89
2022/09/13 00:46:56;;;;;;;15.70;8.45;;;;;;;;;;6213591;23;20179;-90
2022/09/13 00:50:03;;;;;;;16.10;8.43;;;;;;;;;;6213889;23;20167;-90
2022/09/13 00:53:10;;;;;;;19.58;9.57;;;;;;;;;;6214843;23;20166;-91
2022/09/13 00:56:18;;;;;;;23.50;9.30;;;;;;;;;;6214780;23;20213;-91
2022/09/13 00:59:29;;;;;;;19.33;8.95;;;;;;;;;;6214567;23;20194;-89
2022/09/13 01:02:37;;;;;;;24.77;8.77;;;;;;;;;;6214274;23;20162;-91
2022/09/13 01:05:43;;;;;;;29.23;9.82;;;;;;;;;;6213415;23;20228;-90
2022/09/13 01:08:50;;;;;;;29.92;9.95;;;;;;;;;;6216166;23;20155;-90
2022/09/13 01:12:03;;;;;;;25.75;9.40;;;;;;;;;;6215972;23;20167;-91
2022/09/13 01:15:09;;;;;;;18.08;8.80;;;;;;;;;;6216216;23;20167;-91
2022/09/13 01:18:26;;;;;;;23.17;8.38;;;;;;;;;;6215004;23;20226;-88
2022/09/13 01:21:52;;;;;;;23.10;9.68;;;;;;;;;;6216521;23;20441;-90
2022/09/13 01:25:21;;;;;;;20.58;9.23;;;;;;;;;;6215983;23;20531;-91
2022/09/13 01:28:50;;;;;;;24.33;9.25;;;;;;;;;;6215237;23;20514;-90
2022/09/13 01:32:00;;;;;;;20.30;8.43;;;;;;;;;;6214275;23;20171;-89
2022/09/13 02:22:15;;;;;;;53.05;10.45;;;;;;;;;;6217743;22;20239;-90
2022/09/13 02:25:21;;;;;;;16.75;8.95;;;;;;;;;;6217112;23;20168;-92
2022/09/13 02:28:30;;;;;;;40.00;10.20;;;;;;;;;;6217197;23;20151;-90
2022/09/13 02:31:39;;;;;;;19.23;10.30;;;;;;;;;;6220553;23;20159;-90
2022/09/13 02:34:46;;;;;;;18.85;10.70;;;;;;;;;;6221252;23;20229;-89
2022/09/13 02:37:58;;;;;;;17.30;8.80;;;;;;;;;;6217656;23;20187;-89
2022/09/13 02:41:09;;;;;;;18.98;10.00;;;;;;;;;;6217180;23;20176;-90
2022/09/13 02:44:17;;;;;;;26.35;11.02;;;;;;;;;;6215804;23;20241;-92
2022/09/13 02:47:36;;;;;;;19.33;11.73;;;;;;;;;;6215302;23;20155;-90
2022/09/13 02:50:46;;;;;;;26.90;10.93;;;;;;;;;;6216659;23;20195;-89
2022/09/13 02:53:58;;;;;;;22.67;9.82;;;;;;;;;;6217567;23;20167;-90
2022/09/13 02:57:07;;;;;;;21.58;9.80;;;;;;;;;;6217237;23;20171;-90
2022/09/13 03:00:13;;;;;;;22.17;10.98;;;;;;;;;;6217023;23;20167;-90
2022/09/13 03:06:39;;;;;;;25.90;11.30;;;;;;;;;;6217298;23;20202;-90
2022/09/13 03:09:53;;;;;;;22.38;11.52;;;;;;;;;;6216929;23;20183;-90
2022/09/13 03:13:09;;;;;;;28.58;11.40;;;;;;;;;;6214756;23;20155;-91
2022/09/13 03:16:23;;;;;;;24.90;10.70;;;;;;;;;;6215515;23;20203;-90
2022/09/13 03:19:41;;;;;;;32.88;11.73;;;;;;;;;;6213944;23;20192;-90
2022/09/13 03:23:04;;;;;;;22.23;11.73;;;;;;;;;;6234890;23;20194;-92
2022/09/13 03:26:23;;;;;;;87.65;12.48;;;;;;;;;;6216297;23;20242;-91
2022/09/13 03:29:33;;;;;;;23.60;12.27;;;;;;;;;;6216949;23;20155;-89
2022/09/13 03:32:44;;;;;;;21.73;11.00;;;;;;;;;;6216222;23;20155;-90
2022/09/13 03:35:54;;;;;;;23.95;10.45;;;;;;;;;;6216990;23;20219;-92
2022/09/13 03:39:06;;;;;;;23.23;11.35;;;;;;;;;;6216265;23;20282;-88
2022/09/13 03:42:28;;;;;;;23.55;11.48;;;;;;;;;;6216749;23;20202;-89
2022/09/13 03:45:43;;;;;;;40.42;11.90;;;;;;;;;;6215718;23;20178;-90
2022/09/13 03:49:27;;;;;;;23.98;11.40;;;;;;;;;;6217748;23;20214;-89
2022/09/13 03:52:33;;;;;;;34.05;12.23;;;;;;;;;;6216382;23;20151;-91
2022/09/13 03:55:41;;;;;;;37.45;12.23;;;;;;;;;;6216372;23;20155;-90
2022/09/13 03:58:46;;;;;;;23.02;12.20;;;;;;;;;;6215296;23;20190;-90
2022/09/13 04:01:54;;;;;;;21.23;11.45;;;;;;;;;;6214715;23;20166;-88
2022/09/13 05:54:36;;;;;;;30.20;12.32;;;;;;;;;;6126450;22;1318145;-89
2022/09/13 05:57:41;;;;;;;23.40;11.50;;;;;;;;;;6137351;23;20257;-89
2022/09/13 06:00:46;;;;;;;24.00;12.20;;;;;;;;;;6136211;23;20177;-88
2022/09/13 06:03:53;;;;;;;33.05;11.43;;;;;;;;;;6136532;23;20173;-89
2022/09/13 06:06:58;;;;;;;37.22;11.70;;;;;;;;;;6139252;23;20188;-92
2022/09/13 06:10:05;;;;;;;28.55;11.43;;;;;;;;;;6138128;23;20180;-91
2022/09/13 06:13:10;;;;;;;31.08;12.18;;;;;;;;;;6139406;23;20176;-91
2022/09/13 06:16:16;;;;;;;23.38;11.75;;;;;;;;;;6139256;23;20245;-91
2022/09/13 06:19:21;;;;;;;23.55;10.15;;;;;;;;;;6140233;23;20203;-90
2022/09/13 06:22:31;;;;;;;27.60;11.48;;;;;;;;;;6138656;23;20181;-91
2022/09/13 06:25:38;;;;;;;20.23;10.23;;;;;;;;;;6139215;23;20170;-92
2022/09/13 06:28:43;;;;;;;24.02;10.93;;;;;;;;;;6137818;23;20176;-91
2022/09/13 06:31:49;;;;;;;22.95;11.02;;;;;;;;;;6138588;23;20161;-90
2022/09/13 06:34:54;;;;;;;23.88;11.75;;;;;;;;;;6138174;23;20177;-91
2022/09/13 06:38:00;;;;;;;26.92;11.20;;;;;;;;;;6139808;23;20624;-90
2022/09/13 06:41:07;;;;;;;27.63;12.68;;;;;;;;;;6139278;23;20216;-89
2022/09/13 06:44:12;;;;;;;26.55;11.30;;;;;;;;;;6138388;23;20244;-89
2022/09/13 06:47:17;;;;;;;22.45;11.15;;;;;;;;;;6137375;23;20268;-91
2022/09/13 06:50:23;;;;;;;20.13;12.25;;;;;;;;;;6138174;23;20170;-89
2022/09/13 06:53:28;;;;;;;24.92;12.45;;;;;;;;;;6136672;23;20169;-89
2022/09/13 06:56:36;;;;;;;26.23;11.55;;;;;;;;;;6137345;23;20238;-92
2022/09/13 06:59:41;;;;;;;23.95;12.02;;;;;;;;;;6136210;23;20576;-92
2022/09/13 07:02:51;;;;;;;19.10;11.70;;;;;;;;;;6135757;23;20173;-92
2022/09/13 07:05:56;;;;;;;22.85;12.18;;;;;;;;;;6136766;23;20173;-89
2022/09/13 07:09:03;;;;;;;18.90;10.95;;;;;;;;;;6139472;23;20164;-91
2022/09/13 07:12:09;;;;;;;22.73;11.65;;;;;;;;;;6138422;23;20177;-89
2022/09/13 07:15:14;;;;;;;31.90;13.18;;;;;;;;;;6137734;23;20173;-90
2022/09/13 07:18:20;;;;;;;30.02;12.70;;;;;;;;;;6137677;23;20637;-91
2022/09/13 07:21:25;;;;;;;24.85;13.50;;;;;;;;;;6138893;23;20157;-91
2022/09/13 07:24:30;;;;;;;29.77;14.48;;;;;;;;;;6139552;23;20157;-90
2022/09/13 07:27:37;;;;;;;26.20;13.60;;;;;;;;;;6140586;23;20192;-90
2022/09/13 07:30:42;;;;;;;26.60;13.50;;;;;;;;;;6138846;23;20304;-91
2022/09/13 07:33:48;;;;;;;28.45;13.43;;;;;;;;;;6137343;23;20181;-91
2022/09/13 07:36:56;;;;;;;20.48;11.88;;;;;;;;;;6139695;23;20161;-90
2022/09/13 07:40:02;;;;;;;22.35;11.55;;;;;;;;;;6140365;23;20169;-90
2022/09/13 07:43:09;;;;;;;21.73;11.23;;;;;;;;;;6137520;23;20173;-92
2022/09/13 07:46:17;;;;;;;21.35;11.90;;;;;;;;;;6136233;23;20165;-91
2022/09/13 07:49:22;;;;;;;24.90;11.50;;;;;;;;;;6139667;23;20177;-91
2022/09/13 07:52:29;;;;;;;21.05;11.15;;;;;;;;;;6137836;23;20168;-90
2022/09/13 07:55:34;;;;;;;18.02;10.48;;;;;;;;;;6134191;23;20515;-90
2022/09/13 07:58:41;;;;;;;18.45;10.52;;;;;;;;;;6137301;23;20169;-90
2022/09/13 08:01:47;;;;;;;17.33;10.80;;;;;;;;;;6138539;23;20270;-91
2022/09/13 08:04:52;;;;;;;19.35;10.05;;;;;;;;;;6136496;23;20168;-92
2022/09/13 08:07:57;;;;;;;17.88;11.10;;;;;;;;;;6135832;23;20240;-91
2022/09/13 08:11:02;;;;;;;18.08;9.73;;;;;;;;;;6139415;23;20172;-91
2022/09/13 08:14:10;;;;;;;15.73;9.70;;;;;;;;;;6138431;23;20175;-89
2022/09/13 08:17:15;;;;;;;15.07;9.45;;;;;;;;;;6136245;23;20511;-92
2022/09/13 08:20:20;;;;;;;13.73;8.40;;;;;;;;;;6141985;23;20173;-91
2022/09/13 08:23:26;;;;;;;16.83;8.32;;;;;;;;;;6140393;23;20193;-92
2022/09/13 08:26:33;;;;;;;16.23;8.18;;;;;;;;;;6137951;23;20169;-92
2022/09/13 08:29:39;;;;;;;12.30;8.18;;;;;;;;;;6136354;23;20169;-91
2022/09/13 08:32:44;;;;;;;13.65;8.50;;;;;;;;;;6139679;23;20160;-92
2022/09/13 08:35:54;;;;;;;15.30;8.10;;;;;;;;;;6137846;23;20169;-93
2022/09/13 08:39:00;;;;;;;12.95;7.95;;;;;;;;;;6138385;23;20194;-93
2022/09/13 08:42:15;;;;;;;10.57;7.07;;;;;;;;;;6137920;23;20169;-91
2022/09/13 08:45:23;;;;;;;14.15;6.65;;;;;;;;;;6138300;23;20210;-93
2022/09/13 08:48:31;;;;;;;11.80;6.60;;;;;;;;;;6140784;23;20165;-91
2022/09/13 08:51:39;;;;;;;11.48;6.93;;;;;;;;;;6139204;23;20181;-91
2022/09/13 08:54:44;;;;;;;11.00;5.82;;;;;;;;;;6138444;23;20220;-92
2022/09/13 08:57:52;;;;;;;10.68;5.95;;;;;;;;;;6140596;23;20181;-88
2022/09/13 09:01:05;;;;;;;10.75;6.00;;;;;;;;;;6139695;23;20169;-91
2022/09/13 09:04:15;;;;;;;8.05;5.60;;;;;;;;;;6144422;23;20515;-91
2022/09/13 09:07:24;;;;;;;7.97;5.45;;;;;;;;;;6144784;23;20206;-92
2022/09/13 09:10:32;;;;;;;9.60;5.50;;;;;;;;;;6141463;23;20177;-91
2022/09/13 09:13:39;;;;;;;8.90;5.65;;;;;;;;;;6144745;23;20173;-91
2022/09/13 09:16:48;;;;;;;8.93;5.53;;;;;;;;;;6144064;23;20169;-90
2022/09/13 09:19:55;;;;;;;8.65;5.18;;;;;;;;;;6141871;23;20264;-93
2022/09/13 09:23:03;;;;;;;7.65;5.10;;;;;;;;;;6140409;23;20583;-93
2022/09/13 09:26:15;;;;;;;7.47;5.30;;;;;;;;;;6140487;23;20152;-93
2022/09/13 09:29:21;;;;;;;9.75;5.30;;;;;;;;;;6139978;23;20173;-90
2022/09/13 09:32:37;;;;;;;8.60;4.97;;;;;;;;;;6139478;23;20221;-93
2022/09/13 09:39:12;;;;;;;6.22;3.97;;;;;;;;;;6146088;23;20209;-91
2022/09/13 09:42:18;;;;;;;7.25;3.85;;;;;;;;;;6145471;23;20237;-91
2022/09/13 09:45:28;;;;;;;5.53;3.97;;;;;;;;;;6142900;23;20205;-92
2022/09/13 09:52:56;;;;;;;6.15;2.80;;;;;;;;;;6139403;23;20200;-89
2022/09/13 09:56:03;;;;;;;9.65;3.30;;;;;;;;;;6138673;23;20192;-90
2022/09/13 09:59:28;;;;;;;4.80;2.60;;;;;;;;;;6138728;23;20172;-91
2022/09/13 10:02:35;;;;;;;4.18;2.78;;;;;;;;;;6139469;23;20268;-93
2022/09/13 10:05:40;;;;;;;4.30;2.60;;;;;;;;;;6139769;23;20169;-92
2022/09/13 10:08:49;;;;;;;3.55;2.65;;;;;;;;;;6139264;23;20176;-91
2022/09/13 10:11:56;;;;;;;5.82;2.50;;;;;;;;;;6140757;23;20244;-93
2022/09/13 10:15:16;;;;;;;5.05;3.10;;;;;;;;;;6125531;23;20172;-91
2022/09/13 10:18:22;;;;;;;3.83;2.75;;;;;;;;;;6141327;23;20663;-92
2022/09/13 10:21:28;;;;;;;4.88;3.10;;;;;;;;;;6143736;23;20160;-90
2022/09/13 10:24:40;;;;;;;5.72;3.08;;;;;;;;;;6141940;23;20168;-93
2022/09/13 10:27:52;;;;;;;3.28;2.50;;;;;;;;;;6143493;23;20168;-91
2022/09/13 10:30:59;;;;;;;5.53;2.55;;;;;;;;;;6145145;23;20164;-92
2022/09/13 10:34:13;;;;;;;4.43;2.75;;;;;;;;;;6143757;23;20255;-92
2022/09/13 10:37:34;;;;;;;10.85;2.80;;;;;;;;;;6143995;23;20180;-92
2022/09/13 10:40:41;;;;;;;3.30;2.45;;;;;;;;;;6142813;23;20217;-90
2022/09/13 10:43:46;;;;;;;3.30;2.58;;;;;;;;;;6143212;23;20244;-90
2022/09/13 10:47:13;;;;;;;2.95;2.60;;;;;;;;;;6141077;23;20165;-89
2022/09/13 10:50:23;;;;;;;4.95;2.92;;;;;;;;;;6142077;23;20172;-91
2022/09/13 10:53:32;;;;;;;3.83;2.63;;;;;;;;;;6141391;23;20209;-93
2022/09/13 10:56:42;;;;;;;4.05;2.30;;;;;;;;;;6141820;23;20161;-92
2022/09/13 10:59:53;;;;;;;3.20;2.50;;;;;;;;;;6140477;23;20173;-92
2022/09/13 11:03:16;;;;;;;4.32;2.30;;;;;;;;;;6141126;23;20161;-93
2022/09/13 11:06:28;;;;;;;4.63;2.40;;;;;;;;;;6140484;23;20153;-92
2022/09/13 11:09:35;;;;;;;4.05;2.30;;;;;;;;;;6141246;23;20171;-94
2022/09/13 11:12:44;;;;;;;2.97;2.08;;;;;;;;;;6147461;23;20164;-93
2022/09/13 11:15:55;;;;;;;2.33;2.10;;;;;;;;;;6140277;23;20210;-93
2022/09/13 11:19:10;;;;;;;2.05;1.70;;;;;;;;;;6140616;23;20519;-92
2022/09/13 11:22:45;;;;;;;2.60;1.90;;;;;;;;;;6141694;23;20213;-90
2022/09/13 11:26:00;;;;;;;3.13;2.13;;;;;;;;;;6008499;23;20172;-92
2022/09/13 11:29:12;;;;;;;2.63;1.90;;;;;;;;;;6140409;23;20242;-93
2022/09/13 11:32:23;;;;;;;3.95;1.80;;;;;;;;;;6138917;23;20483;-92
2022/09/13 11:35:34;;;;;;;4.25;1.95;;;;;;;;;;6142016;23;20169;-91
2022/09/13 11:38:46;;;;;;;3.65;2.10;;;;;;;;;;6138013;23;20266;-93
2022/09/13 11:41:59;;;;;;;3.30;2.25;;;;;;;;;;6139779;23;20173;-92
2022/09/13 11:45:16;;;;;;;4.30;2.00;;;;;;;;;;6140856;23;20169;-91
2022/09/13 11:48:37;;;;;;;5.43;2.15;;;;;;;;;;6138888;23;20213;-91
2022/09/13 11:51:50;;;;;;;2.85;2.35;;;;;;;;;;6141023;23;20317;-91
2022/09/13 11:55:00;;;;;;;4.57;2.20;;;;;;;;;;6141715;23;20176;-93
2022/09/13 11:58:07;;;;;;;3.55;2.28;;;;;;;;;;6141472;23;20246;-91
2022/09/13 12:01:18;;;;;;;3.30;1.90;;;;;;;;;;6140894;23;20177;-91
2022/09/13 12:04:25;;;;;;;4.45;2.13;;;;;;;;;;6140531;23;20177;-91
2022/09/13 12:07:34;;;;;;;3.08;2.13;;;;;;;;;;6139293;23;20181;-93
2022/09/13 12:10:44;;;;;;;4.53;2.47;;;;;;;;;;6139550;23;20157;-91
2022/09/13 12:13:51;;;;;;;4.00;2.28;;;;;;;;;;6139725;23;20235;-91
2022/09/13 12:16:59;;;;;;;5.72;2.30;;;;;;;;;;6137909;23;20172;-92
2022/09/13 12:20:06;;;;;;;3.30;2.40;;;;;;;;;;6137826;23;20180;-89
2022/09/13 12:23:15;;;;;;;5.30;2.70;;;;;;;;;;6139361;23;20230;-90
2022/09/13 12:26:22;;;;;;;5.63;2.83;;;;;;;;;;6142840;23;20202;-90
2022/09/13 12:29:30;;;;;;;2.88;2.20;;;;;;;;;;6141897;23;20172;-92
2022/09/13 12:32:48;;;;;;;3.17;2.10;;;;;;;;;;6110718;23;20178;-92
2022/09/13 12:36:09;;;;;;;3.80;2.25;;;;;;;;;;6115447;23;20170;-90
2022/09/13 12:39:27;;;;;;;5.60;2.38;;;;;;;;;;6115071;23;20218;-92
2022/09/13 12:42:48;;;;;;;4.20;2.10;;;;;;;;;;6111952;23;20218;-93
2022/09/13 12:46:02;;;;;;;5.45;2.45;;;;;;;;;;6113572;23;20183;-91
2022/09/13 12:53:04;;;;;;;3.55;2.10;;;;;;;;;;6116022;23;20297;-90
2022/09/13 12:56:22;;;;;;;2.70;2.00;;;;;;;;;;6111174;23;20290;-89
2022/09/13 12:59:38;;;;;;;3.55;2.20;;;;;;;;;;6111578;23;20194;-91
2022/09/13 13:02:45;;;;;;;2.45;2.10;;;;;;;;;;6111219;23;20190;-90
2022/09/13 13:05:52;;;;;;;2.92;1.85;;;;;;;;;;6110117;23;20170;-91
2022/09/13 13:09:01;;;;;;;4.75;2.33;;;;;;;;;;6109372;23;20287;-88
2022/09/13 13:12:06;;;;;;;4.45;2.28;;;;;;;;;;6111094;23;20283;-90
2022/09/13 13:15:39;;;;;;;3.85;1.98;;;;;;;;;;6112428;23;20173;-89
2022/09/13 13:18:47;;;;;;;3.63;2.58;;;;;;;;;;6112559;23;20205;-91
2022/09/13 13:21:55;;;;;;;3.17;2.17;;;;;;;;;;6111224;23;20257;-89
2022/09/13 13:25:21;;;;;;;5.78;2.55;;;;;;;;;;6110318;23;20173;-91
2022/09/13 13:28:46;;;;;;;4.75;2.17;;;;;;;;;;6112681;23;20291;-88
2022/09/13 13:32:15;;;;;;;4.55;2.58;;;;;;;;;;6113105;23;20178;-88
2022/09/13 13:35:31;;;;;;;2.65;2.03;;;;;;;;;;6116714;23;20223;-91
2022/09/13 13:38:43;;;;;;;4.75;2.30;;;;;;;;;;6113142;23;20198;-90
2022/09/13 18:37:01;;;;;;;12.95;6.05;;;;;;;;;;6121418;23;20213;-91
2022/09/13 18:40:12;;;;;;;13.88;6.05;;;;;;;;;;6123463;23;20652;-87
2022/09/13 18:43:18;;;;;;;14.68;6.20;;;;;;;;;;6125484;23;20225;-90
2022/09/13 18:46:25;;;;;;;14.85;6.82;;;;;;;;;;6125093;23;20156;-89
2022/09/13 18:49:31;;;;;;;12.98;5.53;;;;;;;;;;6125637;23;20233;-91
2022/09/13 18:52:40;;;;;;;13.50;5.20;;;;;;;;;;6124094;23;20229;-90
2022/09/13 18:55:47;;;;;;;12.60;5.82;;;;;;;;;;6126118;23;20165;-91
2022/09/13 18:58:54;;;;;;;10.68;5.80;;;;;;;;;;6127114;23;20185;-89
2022/09/13 19:01:59;;;;;;;11.27;4.80;;;;;;;;;;6124078;23;20172;-88
2022/09/13 19:05:05;;;;;;;8.57;4.90;;;;;;;;;;6125248;23;20233;-90
2022/09/13 19:08:12;;;;;;;16.58;5.18;;;;;;;;;;6127894;23;20169;-90
2022/09/13 19:14:44;;;;;;;9.98;5.15;;;;;;;;;;6125561;23;20213;-90
2022/09/13 19:17:50;;;;;;;10.43;5.22;;;;;;;;;;6127290;23;20152;-89
2022/09/13 19:21:01;;;;;;;11.00;5.13;;;;;;;;;;6126499;23;20165;-88
2022/09/13 19:24:10;;;;;;;9.13;5.57;;;;;;;;;;6125150;23;20164;-91
2022/09/13 19:27:15;;;;;;;7.95;5.40;;;;;;;;;;6125095;23;20198;-89
2022/09/13 19:30:20;;;;;;;11.77;5.13;;;;;;;;;;6125177;23;20161;-88
2022/09/13 19:33:25;;;;;;;13.90;5.60;;;;;;;;;;6122545;23;20153;-90
2022/09/13 19:36:31;;;;;;;8.48;5.28;;;;;;;;;;6121752;23;20197;-87
2022/09/13 19:39:38;;;;;;;11.13;4.95;;;;;;;;;;6120743;23;20205;-87
2022/09/13 19:42:43;;;;;;;9.20;5.75;;;;;;;;;;6120798;23;20165;-89
2022/09/13 19:45:55;;;;;;;13.02;5.43;;;;;;;;;;6120577;23;20213;-89
2022/09/13 19:49:02;;;;;;;10.50;5.72;;;;;;;;;;6122374;23;20181;-89
2022/09/13 19:52:07;;;;;;;13.30;5.95;;;;;;;;;;6122744;23;20164;-89
2022/09/13 19:55:13;;;;;;;9.75;5.38;;;;;;;;;;6121948;23;20165;-88
2022/09/13 19:58:19;;;;;;;8.45;5.28;;;;;;;;;;6120918;23;20245;-89
2022/09/13 20:01:25;;;;;;;13.27;6.60;;;;;;;;;;6122112;23;20180;-89
2022/09/13 20:04:30;;;;;;;12.82;5.38;;;;;;;;;;6120881;23;20168;-88
2022/09/13 20:07:35;;;;;;;9.30;5.28;;;;;;;;;;6121804;23;20169;-89
2022/09/13 20:10:42;;;;;;;8.98;5.13;;;;;;;;;;6123851;23;20182;-89
2022/09/13 20:13:48;;;;;;;8.88;5.13;;;;;;;;;;6123118;23;20707;-89
2022/09/13 20:16:54;;;;;;;10.93;5.50;;;;;;;;;;6122930;23;20226;-88
2022/09/13 20:19:59;;;;;;;8.60;5.18;;;;;;;;;;6122511;23;20200;-88
2022/09/13 20:23:04;;;;;;;13.43;5.30;;;;;;;;;;6121171;23;20213;-91
2022/09/13 20:26:15;;;;;;;9.15;5.18;;;;;;;;;;6121569;23;20185;-89
2022/09/13 20:29:21;;;;;;;7.68;5.03;;;;;;;;;;6122052;23;20216;-90
2022/09/13 20:32:27;;;;;;;10.70;5.22;;;;;;;;;;6122491;23;20173;-86
2022/09/13 20:35:34;;;;;;;9.52;5.82;;;;;;;;;;6121505;23;20295;-88
2022/09/13 20:38:40;;;;;;;12.15;5.57;;;;;;;;;;6124466;23;20294;-91
2022/09/13 20:41:49;;;;;;;14.80;5.25;;;;;;;;;;6126353;23;20198;-89
2022/09/13 20:44:54;;;;;;;10.70;5.10;;;;;;;;;;6124355;23;20185;-89
2022/09/13 20:48:00;;;;;;;10.57;5.40;;;;;;;;;;6125296;23;20165;-89
2022/09/13 20:51:07;;;;;;;8.10;5.57;;;;;;;;;;6127442;23;20278;-88
2022/09/13 20:54:13;;;;;;;8.55;4.82;;;;;;;;;;6128507;23;20168;-89
2022/09/13 20:57:32;;;;;;;11.75;5.25;;;;;;;;;;6126744;23;20176;-89
2022/09/13 21:00:39;;;;;;;12.18;5.03;;;;;;;;;;6124664;23;20649;-89
2022/09/13 21:03:45;;;;;;;13.85;4.88;;;;;;;;;;6128568;23;20225;-88
2022/09/13 21:10:14;;;;;;;10.70;5.57;;;;;;;;;;6128862;23;20189;-89
2022/09/13 21:13:21;;;;;;;15.32;5.25;;;;;;;;;;6128987;23;20173;-91
